Aviation Digital Data Service (ADDS)

Output produced by TAFs form (0359 UTC 23 September 2017)
found at http://www.aviationweather.gov/adds/tafs/
 
KMKT 222335Z 2300/2324 18014G20KT P6SM SCT150 
     FM230200 18014G20KT P6SM SCT150 WS020/21050KT 
     FM230700 18010KT P6SM SCT120 BKN250 
     FM231700 18010KT P6SM SCT050
       
KRST 230110Z 2301/2324 17012KT P6SM SKC 
     FM230300 18013KT P6SM SKC WS015/21045KT 
     FM230900 19010KT P6SM SKC 
     FM231800 19012G20KT P6SM SCT040
       
KMSP 230321Z 2303/2406 18014KT P6SM BKN150 WS020/21050KT 
     FM230700 18009KT P6SM SCT120 BKN250 
     FM231700 18010KT P6SM SCT050